sensor_id;sensor_type;location;lat;lon;timestamp;temperature;humidity
21928;DHT22;11128;51.096;17.190;2023-12-20T00:04:22;6.80;1.00
21928;DHT22;11128;51.096;17.190;2023-12-20T00:09:24;6.60;1.00
21928;DHT22;11128;51.096;17.190;2023-12-20T00:14:25;6.60;99.90
21928;DHT22;11128;51.096;17.190;2023-12-20T00:19:26;6.60;99.90
21928;DHT22;11128;51.096;17.190;2023-12-20T00:24:27;6.70;99.90
21928;DHT22;11128;51.096;17.190;2023-12-20T00:29:28;6.80;1.00
21928;DHT22;11128;51.096;17.190;2023-12-20T00:34:29;6.60;99.90
21928;DHT22;11128;51.096;17.190;2023-12-20T00:39:31;6.60;1.00
21928;DHT22;11128;51.096;17.190;2023-12-20T00:44:32;6.60;99.90
21928;DHT22;11128;51.096;17.190;2023-12-20T00:49:34;6.60;36.10
21928;DHT22;11128;51.096;17.190;2023-12-20T00:54:35;6.60;99.90
21928;DHT22;11128;51.096;17.190;2023-12-20T00:59:37;6.60;99.90
21928;DHT22;11128;51.096;17.190;2023-12-20T01:04:38;6.50;1.00
21928;DHT22;11128;51.096;17.190;2023-12-20T01:09:40;6.60;1.00
21928;DHT22;11128;51.096;17.190;2023-12-20T01:14:41;6.70;1.00
21928;DHT22;11128;51.096;17.190;2023-12-20T01:19:43;6.60;84.60
21928;DHT22;11128;51.096;17.190;2023-12-20T01:24:44;6.80;99.90
21928;DHT22;11128;51.096;17.190;2023-12-20T01:29:45;6.50;1.00
21928;DHT22;11128;51.096;17.190;2023-12-20T01:34:47;6.50;88.20
21928;DHT22;11128;51.096;17.190;2023-12-20T01:39:49;6.50;99.90
21928;DHT22;11128;51.096;17.190;2023-12-20T01:44:51;6.50;1.00
21928;DHT22;11128;51.096;17.190;2023-12-20T01:49:52;6.50;1.00
21928;DHT22;11128;51.096;17.190;2023-12-20T01:54:54;6.50;1.00
21928;DHT22;11128;51.096;17.190;2023-12-20T01:59:57;6.70;1.00
21928;DHT22;11128;51.096;17.190;2023-12-20T02:04:59;6.50;1.00
21928;DHT22;11128;51.096;17.190;2023-12-20T02:10:01;6.50;99.90
21928;DHT22;11128;51.096;17.190;2023-12-20T02:15:03;6.50;1.00
21928;DHT22;11128;51.096;17.190;2023-12-20T02:20:05;6.50;1.00
21928;DHT22;11128;51.096;17.190;2023-12-20T02:25:07;6.50;99.90
21928;DHT22;11128;51.096;17.190;2023-12-20T02:30:08;6.50;1.00
21928;DHT22;11128;51.096;17.190;2023-12-20T02:35:10;6.60;1.00
21928;DHT22;11128;51.096;17.190;2023-12-20T02:40:11;6.60;99.90
21928;DHT22;11128;51.096;17.190;2023-12-20T02:45:14;6.60;1.00
21928;DHT22;11128;51.096;17.190;2023-12-20T02:50:15;6.60;1.00
21928;DHT22;11128;51.096;17.190;2023-12-20T02:55:17;6.60;1.00
21928;DHT22;11128;51.096;17.190;2023-12-20T03:00:18;6.50;1.00
21928;DHT22;11128;51.096;17.190;2023-12-20T03:05:19;6.60;1.00
21928;DHT22;11128;51.096;17.190;2023-12-20T03:10:21;6.60;1.00
21928;DHT22;11128;51.096;17.190;2023-12-20T03:15:23;6.50;1.00
21928;DHT22;11128;51.096;17.190;2023-12-20T03:20:24;6.50;1.00
21928;DHT22;11128;51.096;17.190;2023-12-20T03:25:26;6.50;99.90
21928;DHT22;11128;51.096;17.190;2023-12-20T03:30:28;6.60;99.90
21928;DHT22;11128;51.096;17.190;2023-12-20T03:35:29;6.50;99.90
21928;DHT22;11128;51.096;17.190;2023-12-20T03:40:30;6.40;1.00
21928;DHT22;11128;51.096;17.190;2023-12-20T03:45:31;6.50;1.00
21928;DHT22;11128;51.096;17.190;2023-12-20T03:50:32;6.40;99.90
21928;DHT22;11128;51.096;17.190;2023-12-20T03:55:33;6.40;99.90
21928;DHT22;11128;51.096;17.190;2023-12-20T04:00:34;6.40;1.00
21928;DHT22;11128;51.096;17.190;2023-12-20T04:05:36;6.30;1.00
21928;DHT22;11128;51.096;17.190;2023-12-20T04:10:37;6.30;99.90
21928;DHT22;11128;51.096;17.190;2023-12-20T04:15:38;6.30;99.90
21928;DHT22;11128;51.096;17.190;2023-12-20T04:20:39;6.20;24.60
21928;DHT22;11128;51.096;17.190;2023-12-20T04:25:40;6.20;1.00
21928;DHT22;11128;51.096;17.190;2023-12-20T04:30:42;6.20;99.90
21928;DHT22;11128;51.096;17.190;2023-12-20T04:35:44;6.10;99.90
21928;DHT22;11128;51.096;17.190;2023-12-20T04:40:46;6.20;99.90
21928;DHT22;11128;51.096;17.190;2023-12-20T04:45:49;6.10;1.00
21928;DHT22;11128;51.096;17.190;2023-12-20T04:50:50;6.10;1.00
21928;DHT22;11128;51.096;17.190;2023-12-20T04:55:51;6.00;1.00
21928;DHT22;11128;51.096;17.190;2023-12-20T05:00:52;6.00;1.00
21928;DHT22;11128;51.096;17.190;2023-12-20T05:05:54;6.00;1.00
21928;DHT22;11128;51.096;17.190;2023-12-20T05:10:55;6.00;1.00
21928;DHT22;11128;51.096;17.190;2023-12-20T05:15:56;6.00;1.00
21928;DHT22;11128;51.096;17.190;2023-12-20T05:20:58;6.00;99.90
21928;DHT22;11128;51.096;17.190;2023-12-20T05:25:59;6.00;99.90
21928;DHT22;11128;51.096;17.190;2023-12-20T05:31:00;5.90;99.90
21928;DHT22;11128;51.096;17.190;2023-12-20T05:36:02;5.90;99.90
21928;DHT22;11128;51.096;17.190;2023-12-20T05:41:04;5.90;99.90
21928;DHT22;11128;51.096;17.190;2023-12-20T05:46:05;5.90;1.00
21928;DHT22;11128;51.096;17.190;2023-12-20T05:51:06;5.80;1.00
21928;DHT22;11128;51.096;17.190;2023-12-20T05:56:07;5.90;1.00
21928;DHT22;11128;51.096;17.190;2023-12-20T06:01:08;5.80;38.00
21928;DHT22;11128;51.096;17.190;2023-12-20T06:06:10;5.80;99.90
21928;DHT22;11128;51.096;17.190;2023-12-20T06:11:11;5.80;1.00
21928;DHT22;11128;51.096;17.190;2023-12-20T06:16:12;5.70;1.00
21928;DHT22;11128;51.096;17.190;2023-12-20T06:21:13;5.70;1.00
21928;DHT22;11128;51.096;17.190;2023-12-20T06:26:15;5.70;1.00
21928;DHT22;11128;51.096;17.190;2023-12-20T06:31:16;5.60;26.80
21928;DHT22;11128;51.096;17.190;2023-12-20T06:36:17;5.80;1.00
21928;DHT22;11128;51.096;17.190;2023-12-20T06:41:18;5.70;1.00
21928;DHT22;11128;51.096;17.190;2023-12-20T06:46:20;5.70;1.00
21928;DHT22;11128;51.096;17.190;2023-12-20T06:51:21;5.70;13.20
21928;DHT22;11128;51.096;17.190;2023-12-20T06:56:26;5.70;1.00
21928;DHT22;11128;51.096;17.190;2023-12-20T07:01:27;5.70;1.00
21928;DHT22;11128;51.096;17.190;2023-12-20T07:06:28;5.70;1.00
21928;DHT22;11128;51.096;17.190;2023-12-20T07:11:29;5.70;1.00
21928;DHT22;11128;51.096;17.190;2023-12-20T07:16:31;5.90;1.00
21928;DHT22;11128;51.096;17.190;2023-12-20T07:21:32;5.60;1.00
21928;DHT22;11128;51.096;17.190;2023-12-20T07:26:35;5.60;99.90
21928;DHT22;11128;51.096;17.190;2023-12-20T07:31:36;5.70;99.90
21928;DHT22;11128;51.096;17.190;2023-12-20T07:36:37;5.80;1.00
21928;DHT22;11128;51.096;17.190;2023-12-20T07:41:39;5.60;1.00
21928;DHT22;11128;51.096;17.190;2023-12-20T07:46:40;5.70;1.00
21928;DHT22;11128;51.096;17.190;2023-12-20T07:51:42;5.70;99.90
21928;DHT22;11128;51.096;17.190;2023-12-20T07:56:43;5.70;1.00
21928;DHT22;11128;51.096;17.190;2023-12-20T08:01:44;5.60;1.00
21928;DHT22;11128;51.096;17.190;2023-12-20T08:06:46;5.60;1.00
21928;DHT22;11128;51.096;17.190;2023-12-20T08:11:48;5.60;1.00
21928;DHT22;11128;51.096;17.190;2023-12-20T08:16:49;5.60;99.90
21928;DHT22;11128;51.096;17.190;2023-12-20T08:21:50;5.60;99.90
21928;DHT22;11128;51.096;17.190;2023-12-20T08:26:52;5.60;1.00
21928;DHT22;11128;51.096;17.190;2023-12-20T08:31:53;5.60;99.90
21928;DHT22;11128;51.096;17.190;2023-12-20T08:36:55;5.60;99.90
21928;DHT22;11128;51.096;17.190;2023-12-20T08:41:56;5.70;99.90
21928;DHT22;11128;51.096;17.190;2023-12-20T08:46:58;5.60;99.90
21928;DHT22;11128;51.096;17.190;2023-12-20T08:51:59;5.60;99.90
21928;DHT22;11128;51.096;17.190;2023-12-20T08:57:01;5.70;99.90
21928;DHT22;11128;51.096;17.190;2023-12-20T09:02:02;5.70;53.30
21928;DHT22;11128;51.096;17.190;2023-12-20T09:07:03;5.70;99.90
21928;DHT22;11128;51.096;17.190;2023-12-20T09:12:05;5.70;4.00
21928;DHT22;11128;51.096;17.190;2023-12-20T09:17:07;5.70;1.00
21928;DHT22;11128;51.096;17.190;2023-12-20T09:22:10;5.70;1.00
21928;DHT22;11128;51.096;17.190;2023-12-20T09:27:11;5.70;99.90
21928;DHT22;11128;51.096;17.190;2023-12-20T09:32:13;5.70;1.00
21928;DHT22;11128;51.096;17.190;2023-12-20T09:37:14;6.10;1.00
21928;DHT22;11128;51.096;17.190;2023-12-20T09:42:29;5.80;1.00
21928;DHT22;11128;51.096;17.190;2023-12-20T09:47:32;5.70;1.00
21928;DHT22;11128;51.096;17.190;2023-12-20T09:52:36;5.90;1.00
21928;DHT22;11128;51.096;17.190;2023-12-20T09:57:37;5.80;1.00
21928;DHT22;11128;51.096;17.190;2023-12-20T10:02:45;5.90;99.90
21928;DHT22;11128;51.096;17.190;2023-12-20T10:07:47;5.90;1.00
21928;DHT22;11128;51.096;17.190;2023-12-20T10:13:03;5.90;99.90
21928;DHT22;11128;51.096;17.190;2023-12-20T10:18:05;5.90;1.00
21928;DHT22;11128;51.096;17.190;2023-12-20T10:23:06;5.90;1.00
21928;DHT22;11128;51.096;17.190;2023-12-20T10:28:17;5.90;1.00
21928;DHT22;11128;51.096;17.190;2023-12-20T10:33:30;6.00;1.00
21928;DHT22;11128;51.096;17.190;2023-12-20T10:38:34;6.00;99.90
21928;DHT22;11128;51.096;17.190;2023-12-20T10:43:37;6.10;99.90
21928;DHT22;11128;51.096;17.190;2023-12-20T10:48:39;6.50;1.00
21928;DHT22;11128;51.096;17.190;2023-12-20T10:53:41;6.60;1.00
21928;DHT22;11128;51.096;17.190;2023-12-20T10:58:43;6.60;99.90
21928;DHT22;11128;51.096;17.190;2023-12-20T11:03:50;6.60;18.10
21928;DHT22;11128;51.096;17.190;2023-12-20T11:09:10;6.70;1.00
21928;DHT22;11128;51.096;17.190;2023-12-20T11:14:22;6.80;1.00
21928;DHT22;11128;51.096;17.190;2023-12-20T11:19:24;7.00;99.90
21928;DHT22;11128;51.096;17.190;2023-12-20T11:24:26;7.10;99.90
21928;DHT22;11128;51.096;17.190;2023-12-20T11:29:35;7.30;1.00
21928;DHT22;11128;51.096;17.190;2023-12-20T11:34:37;7.50;1.00
21928;DHT22;11128;51.096;17.190;2023-12-20T11:39:38;7.80;99.90
21928;DHT22;11128;51.096;17.190;2023-12-20T11:44:42;8.00;99.90
21928;DHT22;11128;51.096;17.190;2023-12-20T11:49:44;7.90;99.90
21928;DHT22;11128;51.096;17.190;2023-12-20T11:54:45;7.70;99.90
21928;DHT22;11128;51.096;17.190;2023-12-20T11:59:47;7.50;99.90
21928;DHT22;11128;51.096;17.190;2023-12-20T12:04:49;7.40;99.90
21928;DHT22;11128;51.096;17.190;2023-12-20T12:09:51;7.30;99.90
21928;DHT22;11128;51.096;17.190;2023-12-20T12:14:54;7.30;99.90
21928;DHT22;11128;51.096;17.190;2023-12-20T12:20:05;7.20;99.90
21928;DHT22;11128;51.096;17.190;2023-12-20T12:25:11;7.10;46.20
21928;DHT22;11128;51.096;17.190;2023-12-20T12:30:12;7.00;99.90
21928;DHT22;11128;51.096;17.190;2023-12-20T12:35:14;6.90;49.80
21928;DHT22;11128;51.096;17.190;2023-12-20T12:40:17;6.80;99.90
21928;DHT22;11128;51.096;17.190;2023-12-20T12:45:18;6.80;99.90
21928;DHT22;11128;51.096;17.190;2023-12-20T12:50:20;6.70;99.90
21928;DHT22;11128;51.096;17.190;2023-12-20T12:55:22;6.70;99.90
21928;DHT22;11128;51.096;17.190;2023-12-20T13:00:23;6.70;99.90
21928;DHT22;11128;51.096;17.190;2023-12-20T13:05:26;6.90;99.90
21928;DHT22;11128;51.096;17.190;2023-12-20T13:10:27;6.60;99.90
21928;DHT22;11128;51.096;17.190;2023-12-20T13:15:29;6.70;99.90
21928;DHT22;11128;51.096;17.190;2023-12-20T13:20:31;6.60;99.90
21928;DHT22;11128;51.096;17.190;2023-12-20T13:25:33;6.60;68.60
21928;DHT22;11128;51.096;17.190;2023-12-20T13:30:34;6.70;99.90
21928;DHT22;11128;51.096;17.190;2023-12-20T13:35:37;6.80;99.90
21928;DHT22;11128;51.096;17.190;2023-12-20T13:40:38;6.90;97.80
21928;DHT22;11128;51.096;17.190;2023-12-20T13:45:39;7.00;1.00
21928;DHT22;11128;51.096;17.190;2023-12-20T13:50:41;6.80;1.00
21928;DHT22;11128;51.096;17.190;2023-12-20T13:55:42;6.90;1.00
21928;DHT22;11128;51.096;17.190;2023-12-20T14:00:43;6.70;1.00
21928;DHT22;11128;51.096;17.190;2023-12-20T14:05:45;6.80;1.00
21928;DHT22;11128;51.096;17.190;2023-12-20T14:10:47;6.60;1.00
21928;DHT22;11128;51.096;17.190;2023-12-20T14:15:50;6.60;1.00
21928;DHT22;11128;51.096;17.190;2023-12-20T14:20:51;6.60;1.00
21928;DHT22;11128;51.096;17.190;2023-12-20T14:25:53;6.60;1.00
21928;DHT22;11128;51.096;17.190;2023-12-20T14:30:57;6.60;1.00
21928;DHT22;11128;51.096;17.190;2023-12-20T14:35:58;6.50;1.00
21928;DHT22;11128;51.096;17.190;2023-12-20T14:41:00;6.50;1.00
21928;DHT22;11128;51.096;17.190;2023-12-20T14:46:01;6.60;1.00
21928;DHT22;11128;51.096;17.190;2023-12-20T14:51:03;6.50;1.00
21928;DHT22;11128;51.096;17.190;2023-12-20T14:56:05;6.50;1.00
21928;DHT22;11128;51.096;17.190;2023-12-20T15:01:06;6.50;1.00
21928;DHT22;11128;51.096;17.190;2023-12-20T15:06:09;6.50;1.00
21928;DHT22;11128;51.096;17.190;2023-12-20T15:11:12;6.50;1.00
21928;DHT22;11128;51.096;17.190;2023-12-20T15:16:15;6.40;1.00
21928;DHT22;11128;51.096;17.190;2023-12-20T15:21:16;6.40;1.00
21928;DHT22;11128;51.096;17.190;2023-12-20T15:26:19;7.20;1.00
21928;DHT22;11128;51.096;17.190;2023-12-20T15:31:20;6.50;1.00
21928;DHT22;11128;51.096;17.190;2023-12-20T15:36:27;6.40;1.00
21928;DHT22;11128;51.096;17.190;2023-12-20T15:41:29;6.40;1.00
21928;DHT22;11128;51.096;17.190;2023-12-20T15:46:30;6.30;1.00
21928;DHT22;11128;51.096;17.190;2023-12-20T15:51:32;6.30;1.00
21928;DHT22;11128;51.096;17.190;2023-12-20T15:56:34;6.30;1.00
21928;DHT22;11128;51.096;17.190;2023-12-20T16:01:35;6.20;1.00
21928;DHT22;11128;51.096;17.190;2023-12-20T16:06:37;6.20;1.00
21928;DHT22;11128;51.096;17.190;2023-12-20T16:11:38;6.10;1.00
21928;DHT22;11128;51.096;17.190;2023-12-20T16:16:41;6.10;1.00
21928;DHT22;11128;51.096;17.190;2023-12-20T16:21:43;6.10;1.00
21928;DHT22;11128;51.096;17.190;2023-12-20T16:26:44;6.10;1.00
21928;DHT22;11128;51.096;17.190;2023-12-20T16:31:46;6.20;1.00
21928;DHT22;11128;51.096;17.190;2023-12-20T16:36:54;6.10;1.00
21928;DHT22;11128;51.096;17.190;2023-12-20T16:41:55;6.10;1.00
21928;DHT22;11128;51.096;17.190;2023-12-20T16:46:57;6.10;1.00
21928;DHT22;11128;51.096;17.190;2023-12-20T16:51:58;6.10;1.00
21928;DHT22;11128;51.096;17.190;2023-12-20T16:57:00;6.00;1.00
21928;DHT22;11128;51.096;17.190;2023-12-20T17:02:02;6.00;1.00
21928;DHT22;11128;51.096;17.190;2023-12-20T17:07:05;5.90;1.00
21928;DHT22;11128;51.096;17.190;2023-12-20T17:12:06;5.90;1.00
21928;DHT22;11128;51.096;17.190;2023-12-20T17:17:09;5.90;1.00
21928;DHT22;11128;51.096;17.190;2023-12-20T17:22:10;5.90;1.00
21928;DHT22;11128;51.096;17.190;2023-12-20T17:27:11;6.00;1.00
21928;DHT22;11128;51.096;17.190;2023-12-20T17:32:13;6.00;1.00
21928;DHT22;11128;51.096;17.190;2023-12-20T17:37:15;6.00;1.00
21928;DHT22;11128;51.096;17.190;2023-12-20T17:42:16;6.00;1.00
21928;DHT22;11128;51.096;17.190;2023-12-20T17:47:18;6.30;1.00
21928;DHT22;11128;51.096;17.190;2023-12-20T17:52:20;6.00;1.00
21928;DHT22;11128;51.096;17.190;2023-12-20T17:57:22;6.10;1.00
21928;DHT22;11128;51.096;17.190;2023-12-20T18:02:25;6.10;1.00
21928;DHT22;11128;51.096;17.190;2023-12-20T18:07:26;6.20;1.00
21928;DHT22;11128;51.096;17.190;2023-12-20T18:12:28;6.30;1.00
21928;DHT22;11128;51.096;17.190;2023-12-20T18:17:29;6.20;1.00
21928;DHT22;11128;51.096;17.190;2023-12-20T18:22:31;6.30;1.00
21928;DHT22;11128;51.096;17.190;2023-12-20T18:27:32;6.30;1.00
21928;DHT22;11128;51.096;17.190;2023-12-20T18:32:35;6.40;1.00
21928;DHT22;11128;51.096;17.190;2023-12-20T18:37:37;6.30;1.00
21928;DHT22;11128;51.096;17.190;2023-12-20T18:42:40;6.30;1.00
21928;DHT22;11128;51.096;17.190;2023-12-20T18:47:41;6.30;1.00
21928;DHT22;11128;51.096;17.190;2023-12-20T18:52:43;6.30;1.00
21928;DHT22;11128;51.096;17.190;2023-12-20T18:57:45;6.30;1.00
21928;DHT22;11128;51.096;17.190;2023-12-20T19:02:46;6.40;1.00
21928;DHT22;11128;51.096;17.190;2023-12-20T19:07:47;6.20;1.00
21928;DHT22;11128;51.096;17.190;2023-12-20T19:12:50;6.20;1.00
21928;DHT22;11128;51.096;17.190;2023-12-20T19:17:52;6.20;1.00
21928;DHT22;11128;51.096;17.190;2023-12-20T19:22:54;6.20;1.00
21928;DHT22;11128;51.096;17.190;2023-12-20T19:27:56;6.20;1.00
21928;DHT22;11128;51.096;17.190;2023-12-20T19:32:58;6.20;1.00
21928;DHT22;11128;51.096;17.190;2023-12-20T19:38:00;6.10;1.00
21928;DHT22;11128;51.096;17.190;2023-12-20T19:43:01;6.10;1.00
21928;DHT22;11128;51.096;17.190;2023-12-20T19:48:06;6.00;1.00
21928;DHT22;11128;51.096;17.190;2023-12-20T19:53:08;6.00;1.00
21928;DHT22;11128;51.096;17.190;2023-12-20T19:58:10;5.90;1.00
21928;DHT22;11128;51.096;17.190;2023-12-20T20:03:12;5.90;28.00
21928;DHT22;11128;51.096;17.190;2023-12-20T20:08:14;5.80;98.10
21928;DHT22;11128;51.096;17.190;2023-12-20T20:13:16;5.70;99.90
21928;DHT22;11128;51.096;17.190;2023-12-20T20:18:20;5.70;99.90
21928;DHT22;11128;51.096;17.190;2023-12-20T20:23:22;5.60;99.90
21928;DHT22;11128;51.096;17.190;2023-12-20T20:28:24;5.70;99.90
21928;DHT22;11128;51.096;17.190;2023-12-20T20:33:29;5.70;99.90
21928;DHT22;11128;51.096;17.190;2023-12-20T20:38:31;5.70;99.90
21928;DHT22;11128;51.096;17.190;2023-12-20T20:43:33;5.70;99.90
21928;DHT22;11128;51.096;17.190;2023-12-20T20:48:35;5.70;99.90
21928;DHT22;11128;51.096;17.190;2023-12-20T20:53:37;5.70;99.90
21928;DHT22;11128;51.096;17.190;2023-12-20T20:58:39;5.70;99.90
21928;DHT22;11128;51.096;17.190;2023-12-20T21:03:40;5.70;1.00
21928;DHT22;11128;51.096;17.190;2023-12-20T21:08:42;5.70;1.00
21928;DHT22;11128;51.096;17.190;2023-12-20T21:13:44;5.70;1.00
21928;DHT22;11128;51.096;17.190;2023-12-20T21:18:48;5.70;1.00
21928;DHT22;11128;51.096;17.190;2023-12-20T21:23:50;5.60;93.10
21928;DHT22;11128;51.096;17.190;2023-12-20T21:28:51;5.60;99.90
21928;DHT22;11128;51.096;17.190;2023-12-20T21:33:52;5.60;99.90
21928;DHT22;11128;51.096;17.190;2023-12-20T21:38:55;5.60;99.90
21928;DHT22;11128;51.096;17.190;2023-12-20T21:43:57;5.60;99.90
21928;DHT22;11128;51.096;17.190;2023-12-20T21:48:59;5.60;99.90
21928;DHT22;11128;51.096;17.190;2023-12-20T21:54:00;5.60;1.00
21928;DHT22;11128;51.096;17.190;2023-12-20T21:59:04;5.50;1.00
21928;DHT22;11128;51.096;17.190;2023-12-20T22:04:05;5.50;1.00
21928;DHT22;11128;51.096;17.190;2023-12-20T22:09:06;5.50;99.90
21928;DHT22;11128;51.096;17.190;2023-12-20T22:14:09;5.60;99.90
21928;DHT22;11128;51.096;17.190;2023-12-20T22:19:10;6.10;1.00
21928;DHT22;11128;51.096;17.190;2023-12-20T22:24:11;5.60;1.00
21928;DHT22;11128;51.096;17.190;2023-12-20T22:29:13;5.60;1.00
21928;DHT22;11128;51.096;17.190;2023-12-20T22:34:14;5.60;1.00
21928;DHT22;11128;51.096;17.190;2023-12-20T22:39:15;5.60;1.00
21928;DHT22;11128;51.096;17.190;2023-12-20T22:44:17;5.60;1.00
21928;DHT22;11128;51.096;17.190;2023-12-20T22:49:18;5.60;1.00
21928;DHT22;11128;51.096;17.190;2023-12-20T22:54:20;6.00;1.00
21928;DHT22;11128;51.096;17.190;2023-12-20T22:59:21;5.60;1.00
21928;DHT22;11128;51.096;17.190;2023-12-20T23:04:23;5.60;1.00
21928;DHT22;11128;51.096;17.190;2023-12-20T23:09:24;6.30;1.00
21928;DHT22;11128;51.096;17.190;2023-12-20T23:14:26;5.60;1.00
21928;DHT22;11128;51.096;17.190;2023-12-20T23:19:27;5.50;1.00
21928;DHT22;11128;51.096;17.190;2023-12-20T23:24:30;5.40;1.00
21928;DHT22;11128;51.096;17.190;2023-12-20T23:29:31;5.40;89.10
21928;DHT22;11128;51.096;17.190;2023-12-20T23:34:32;5.40;99.90
21928;DHT22;11128;51.096;17.190;2023-12-20T23:39:33;5.40;99.90
21928;DHT22;11128;51.096;17.190;2023-12-20T23:44:35;5.40;99.90
21928;DHT22;11128;51.096;17.190;2023-12-20T23:49:36;5.30;1.00
21928;DHT22;11128;51.096;17.190;2023-12-20T23:54:37;5.30;1.00
21928;DHT22;11128;51.096;17.190;2023-12-20T23:59:39;5.30;73.70
